KRDU

Raleigh-Durham International Airport

Morrisville, North Carolina, USA
KRDU 191137Z 1912/2012 11004KT P6SM BKN025 OVC050 TEMPO 1912/1914 SCT025 OVC050 FM191600 VRB03KT P6SM -RA OVC015 FM191700 VRB03KT 4SM -RA BR OVC008 FM200100 17009KT 3SM -SHRA BR OVC040 WS020/19040KT FM200500 20009KT 5SM -SHRA BR OVC030 WS020/22040KT TEMPO 2005/2009 1 1/2SM SHRA BR SCT009 OVC016 FM200900 21008KT 5SM -SHRA BR OVC008
Issued Valid From Valid To
Jan-19 @ 11:37 UTC
(5 hours ago)
Jan-19 @ 12:00 UTC
(5 hours ago)
Jan-20 @ 12:00 UTC
(in 19 hours)
Expired Click to View Jan-19 @ 12:00 to Jan-19 @ 16:00
KRDU 191137Z 1912/2012 11004KT P6SM BKN025 OVC050
Wind Visibility Clouds
110° at 4 knots Greater than 6 miles
  • Broken at 2,500' AGL
  • Overcast at 5,000' AGL
Expired Click to View Jan-19 @ 12:00 to Jan-19 @ 14:00
TEMPO 1912/1914 SCT025 OVC050
Clouds
  • Scattered at 2,500' AGL
  • Overcast at 5,000' AGL
From Jan-19 @ 16:00 to Jan-19 @ 17:00
FM191600 VRB03KT P6SM -RA OVC015
Wind Visibility Clouds Conditions
Variable at 3 knots Greater than 6 miles
  • Overcast at 1,500' AGL
  • Light Rain
From Jan-19 @ 17:00 to Jan-20 @ 01:00
FM191700 VRB03KT 4SM -RA BR OVC008
Wind Visibility Clouds Conditions
Variable at 3 knots 4 miles
  • Overcast at 800' AGL
  • Light Rain
  • Mist
From Jan-20 @ 01:00 to Jan-20 @ 05:00
FM200100 17009KT 3SM -SHRA BR OVC040 WS020/19040KT
Wind Visibility Clouds Conditions
170° at 9 knots
 Wind shear 2,000' AGL from 190° at 40 knots
3 miles
  • Overcast at 4,000' AGL
  • Light Rain
  • Mist
From Jan-20 @ 05:00 to Jan-20 @ 09:00
FM200500 20009KT 5SM -SHRA BR OVC030 WS020/22040KT
Wind Visibility Clouds Conditions
200° at 9 knots
 Wind shear 2,000' AGL from 220° at 40 knots
5 miles
  • Overcast at 3,000' AGL
  • Light Rain
  • Mist
Temporary Jan-20 @ 05:00 to Jan-20 @ 09:00
TEMPO 2005/2009 1 1/2SM SHRA BR SCT009 OVC016
Visibility Clouds Conditions
1 1/2 miles
  • Scattered at 900' AGL
  • Overcast at 1,600' AGL
  • Rain
  • Mist
From Jan-20 @ 09:00 to Jan-20 @ 12:00
FM200900 21008KT 5SM -SHRA BR OVC008
Wind Visibility Clouds Conditions
210° at 8 knots 5 miles
  • Overcast at 800' AGL
  • Light Rain
  • Mist
KRDU 191137Z 1912/2012 11004KT P6SM BKN025 OVC050 TEMPO 1912/1914 SCT025 OVC050 FM191600 VRB03KT P6SM -RA OVC015 FM191700 VRB03KT 4SM -RA BR OVC008 FM200100 17009KT 3SM -SHRA BR OVC040 WS020/19040KT FM200500 20009KT 5SM -SHRA BR OVC030 WS020/22040KT TEMPO 2005/2009 1 1/2SM SHRA BR SCT009 OVC016 FM200900 21008KT 5SM -SHRA BR OVC008
Issued Jan-19 @ 11:37 UTC
(5 hours ago)
Valid From Jan-19 @ 12:00 UTC
(5 hours ago)
Valid To Jan-20 @ 12:00 UTC
(in 19 hours)
Jan-19 @ 12:00 - Jan-19 @ 16:00
Wind Visibility
110° at 4 knots Greater than 6 miles
Clouds
  • Broken at 2,500' AGL
  • Overcast at 5,000' AGL
Jan-19 @ 12:00 - Jan-19 @ 14:00
Clouds
  • Scattered at 2,500' AGL
  • Overcast at 5,000' AGL
From Jan-19 @ 16:00 - Jan-19 @ 17:00
Wind Visibility
Variable at 3 knots Greater than 6 miles
Clouds
  • Overcast at 1,500' AGL
Conditions
  • Light Rain
From Jan-19 @ 17:00 - Jan-20 @ 01:00
Wind Visibility
Variable at 3 knots 4 miles
Clouds
  • Overcast at 800' AGL
Conditions
  • Light Rain
  • Mist
From Jan-20 @ 01:00 - Jan-20 @ 05:00
Wind Visibility
170° at 9 knots 3 miles
Clouds
  • Overcast at 4,000' AGL
Conditions
  • Light Rain
  • Mist
From Jan-20 @ 05:00 - Jan-20 @ 09:00
Wind Visibility
200° at 9 knots 5 miles
Clouds
  • Overcast at 3,000' AGL
Conditions
  • Light Rain
  • Mist
Temporary Jan-20 @ 05:00 - Jan-20 @ 09:00
Clouds
  • Scattered at 900' AGL
  • Overcast at 1,600' AGL
Conditions
  • Rain
  • Mist
From Jan-20 @ 09:00 - Jan-20 @ 12:00
Wind Visibility
210° at 8 knots 5 miles
Clouds
  • Overcast at 800' AGL
Conditions
  • Light Rain
  • Mist